createdAt,value
2022-08-20T00:01:01.875Z,987.21
2022-08-20T00:01:55.407Z,987.19
2022-08-20T00:02:55.357Z,987.15
2022-08-20T00:03:55.334Z,987.20
2022-08-20T00:04:55.336Z,987.16
2022-08-20T00:05:56.812Z,987.20
2022-08-20T00:06:55.303Z,987.11
2022-08-20T00:07:55.519Z,987.16
2022-08-20T00:08:55.291Z,987.18
2022-08-20T00:09:55.290Z,987.18
2022-08-20T00:10:55.824Z,987.10
2022-08-20T00:11:56.253Z,987.13
2022-08-20T00:12:55.234Z,987.09
2022-08-20T00:13:56.242Z,987.06
2022-08-20T00:14:55.241Z,987.03
2022-08-20T00:15:55.225Z,987.06
2022-08-20T00:16:55.207Z,987.07
2022-08-20T00:17:55.284Z,987.16
2022-08-20T00:18:55.194Z,987.14
2022-08-20T00:19:55.196Z,987.16
2022-08-20T00:20:55.164Z,987.23
2022-08-20T00:21:57.927Z,987.31
2022-08-20T00:22:55.137Z,987.27
2022-08-20T00:23:55.128Z,987.28
2022-08-20T00:24:55.138Z,987.27
2022-08-20T00:25:55.118Z,987.29
2022-08-20T00:26:55.104Z,987.35
2022-08-20T00:27:55.264Z,987.33
2022-08-20T00:28:55.130Z,987.29
2022-08-20T00:29:55.085Z,987.27
2022-08-20T00:30:55.074Z,987.25
2022-08-20T00:31:55.052Z,987.23
2022-08-20T00:32:55.062Z,987.24
2022-08-20T00:33:55.072Z,987.16
2022-08-20T00:34:55.025Z,987.22
2022-08-20T00:35:55.010Z,987.15
2022-08-20T00:36:55.001Z,987.18
2022-08-20T00:37:58.684Z,987.13
2022-08-20T00:38:57.109Z,987.13
2022-08-20T00:39:55.022Z,987.17
2022-08-20T00:40:54.957Z,987.18
2022-08-20T00:41:54.972Z,987.21
2022-08-20T00:42:54.955Z,987.21
2022-08-20T00:43:54.968Z,987.24
2022-08-20T00:44:55.925Z,987.32
2022-08-20T00:45:54.922Z,987.31
2022-08-20T00:46:54.901Z,987.31
2022-08-20T00:47:54.990Z,987.36
2022-08-20T00:48:54.905Z,987.32
2022-08-20T00:49:54.876Z,987.35
2022-08-20T00:50:54.875Z,987.27
2022-08-20T00:51:54.888Z,987.27
2022-08-20T00:52:54.853Z,987.30
2022-08-20T00:53:54.838Z,987.33
2022-08-20T00:54:54.849Z,987.30
2022-08-20T00:55:54.812Z,987.33
2022-08-20T00:56:54.801Z,987.30
2022-08-20T00:58:01.138Z,987.31
2022-08-20T00:58:55.791Z,987.38
2022-08-20T01:01:21.494Z,987.34
2022-08-20T01:02:22.634Z,987.33
2022-08-20T01:03:22.556Z,987.32
2022-08-20T01:04:22.591Z,987.32
2022-08-20T01:05:22.558Z,987.38
2022-08-20T01:06:23.529Z,987.33
2022-08-20T01:07:22.502Z,987.28
2022-08-20T01:08:22.492Z,987.33
2022-08-20T01:09:33.440Z,987.28
2022-08-20T01:10:22.515Z,987.33
2022-08-20T01:11:22.486Z,987.30
2022-08-20T01:12:22.486Z,987.32
2022-08-20T01:13:22.442Z,987.32
2022-08-20T01:14:22.439Z,987.34
2022-08-20T01:15:22.432Z,987.34
2022-08-20T01:16:23.454Z,987.30
2022-08-20T01:17:22.405Z,987.32
2022-08-20T01:18:22.410Z,987.36
2022-08-20T01:19:29.409Z,987.40
2022-08-20T01:20:22.370Z,987.42
2022-08-20T01:21:22.395Z,987.42
2022-08-20T01:22:22.344Z,987.51
2022-08-20T01:23:22.345Z,987.43
2022-08-20T01:24:22.332Z,987.39
2022-08-20T01:25:22.328Z,987.47
2022-08-20T01:26:22.323Z,987.46
2022-08-20T01:27:22.361Z,987.43
2022-08-20T01:28:22.293Z,987.42
2022-08-20T01:29:22.288Z,987.45
2022-08-20T01:30:22.279Z,987.44
2022-08-20T01:31:22.271Z,987.43
2022-08-20T01:32:22.295Z,987.38
2022-08-20T01:33:22.248Z,987.46
2022-08-20T01:34:22.262Z,987.42
2022-08-20T01:35:22.239Z,987.43
2022-08-20T01:36:22.219Z,987.45
2022-08-20T01:37:22.201Z,987.40
2022-08-20T01:38:22.204Z,987.41
2022-08-20T01:39:22.215Z,987.37
2022-08-20T01:40:22.165Z,987.41
2022-08-20T01:41:28.068Z,987.35
2022-08-20T01:42:22.158Z,987.37
2022-08-20T01:43:22.150Z,987.43
2022-08-20T01:44:22.140Z,987.41
2022-08-20T01:45:27.863Z,987.47
2022-08-20T01:46:22.119Z,987.48
2022-08-20T01:47:22.105Z,987.52
2022-08-20T01:48:22.104Z,987.50
2022-08-20T01:49:23.181Z,987.51
2022-08-20T01:50:22.098Z,987.55
2022-08-20T01:51:22.065Z,987.62
2022-08-20T01:52:22.051Z,987.58
2022-08-20T01:53:22.052Z,987.58
2022-08-20T01:54:22.044Z,987.57
2022-08-20T01:55:22.048Z,987.61
2022-08-20T01:56:22.048Z,987.61
2022-08-20T01:57:22.015Z,987.64
2022-08-20T01:58:22.003Z,987.59
2022-08-20T01:59:21.983Z,987.64
2022-08-20T02:00:22.180Z,987.66
2022-08-20T02:01:22.076Z,987.59
2022-08-20T02:02:21.949Z,987.59
2022-08-20T02:03:21.945Z,987.57
2022-08-20T02:04:21.939Z,987.58
2022-08-20T02:05:21.925Z,987.57
2022-08-20T02:06:21.907Z,987.55
2022-08-20T02:07:21.937Z,987.62
2022-08-20T02:08:21.891Z,987.61
2022-08-20T02:09:21.889Z,987.57
2022-08-20T02:10:21.878Z,987.59
2022-08-20T02:11:21.861Z,987.60
2022-08-20T02:12:21.883Z,987.65
2022-08-20T02:13:22.871Z,987.60
2022-08-20T02:14:21.840Z,987.61
2022-08-20T02:15:30.848Z,987.60
2022-08-20T02:16:22.813Z,987.62
2022-08-20T02:17:21.816Z,987.62
2022-08-20T02:18:21.794Z,987.61
2022-08-20T02:19:21.780Z,987.64
2022-08-20T02:20:21.770Z,987.63
2022-08-20T02:21:21.762Z,987.65
2022-08-20T02:22:21.763Z,987.64
2022-08-20T02:23:21.752Z,987.68
2022-08-20T02:24:21.739Z,987.67
2022-08-20T02:25:22.872Z,987.65
2022-08-20T02:26:21.711Z,987.71
2022-08-20T02:27:21.695Z,987.61
2022-08-20T02:28:21.703Z,987.66
2022-08-20T02:29:21.682Z,987.65
2022-08-20T02:30:27.888Z,987.67
2022-08-20T02:31:21.657Z,987.65
2022-08-20T02:32:32.092Z,987.71
2022-08-20T02:33:24.351Z,987.70
2022-08-20T02:34:23.036Z,987.67
2022-08-20T02:35:21.618Z,987.64
2022-08-20T02:36:21.618Z,987.66
2022-08-20T02:37:21.625Z,987.64
2022-08-20T02:38:21.610Z,987.68
2022-08-20T02:39:21.571Z,987.68
2022-08-20T02:40:27.354Z,987.69
2022-08-20T02:41:22.582Z,987.70
2022-08-20T02:42:21.549Z,987.75
2022-08-20T02:43:21.562Z,987.74
2022-08-20T02:44:21.525Z,987.74
2022-08-20T02:45:21.513Z,987.77
2022-08-20T02:46:21.539Z,987.72
2022-08-20T02:47:21.491Z,987.73
2022-08-20T02:48:21.633Z,987.70
2022-08-20T02:49:21.488Z,987.72
2022-08-20T02:50:21.496Z,987.71
2022-08-20T02:51:30.362Z,987.70
2022-08-20T02:52:22.450Z,987.71
2022-08-20T02:53:21.443Z,987.67
2022-08-20T02:54:21.432Z,987.70
2022-08-20T02:55:27.263Z,987.63
2022-08-20T02:56:22.418Z,987.69
2022-08-20T02:57:21.393Z,987.63
2022-08-20T02:58:21.380Z,987.64
2022-08-20T02:59:21.377Z,987.62
2022-08-20T03:00:21.395Z,987.64
2022-08-20T03:01:21.380Z,987.60
2022-08-20T03:02:21.324Z,987.60
2022-08-20T03:03:22.345Z,987.59
2022-08-20T03:04:21.332Z,987.55
2022-08-20T03:05:21.336Z,987.53
2022-08-20T03:06:21.304Z,987.57
2022-08-20T03:07:21.290Z,987.53
2022-08-20T03:08:21.301Z,987.54
2022-08-20T03:09:21.269Z,987.59
2022-08-20T03:10:21.289Z,987.51
2022-08-20T03:11:21.257Z,987.52
2022-08-20T03:12:21.269Z,987.53
2022-08-20T03:13:21.231Z,987.55
2022-08-20T03:14:21.219Z,987.59
2022-08-20T03:15:21.219Z,987.57
2022-08-20T03:16:21.203Z,987.64
2022-08-20T03:17:21.213Z,987.57
2022-08-20T03:18:21.177Z,987.61
2022-08-20T03:19:21.170Z,987.54
2022-08-20T03:20:23.849Z,987.59
2022-08-20T03:21:21.152Z,987.54
2022-08-20T03:22:21.175Z,987.55
2022-08-20T03:23:21.134Z,987.54
2022-08-20T03:24:21.121Z,987.57
2022-08-20T03:25:21.121Z,987.54
2022-08-20T03:26:21.111Z,987.58
2022-08-20T03:27:21.125Z,987.51
2022-08-20T03:28:21.084Z,987.51
2022-08-20T03:29:21.073Z,987.49
2022-08-20T03:30:21.058Z,987.49
2022-08-20T03:31:21.045Z,987.48
2022-08-20T03:32:21.058Z,987.52
2022-08-20T03:33:21.027Z,987.55
2022-08-20T03:34:21.039Z,987.47
2022-08-20T03:35:21.013Z,987.57
2022-08-20T03:36:22.292Z,987.53
2022-08-20T03:37:21.992Z,987.65
2022-08-20T03:38:29.225Z,987.57
2022-08-20T03:39:21.986Z,987.71
2022-08-20T03:40:20.987Z,987.72
2022-08-20T03:41:20.961Z,987.73
2022-08-20T03:42:20.943Z,987.77
2022-08-20T03:43:20.930Z,987.76
2022-08-20T03:44:20.920Z,987.75
2022-08-20T03:45:20.969Z,987.75
2022-08-20T03:46:23.297Z,987.80
2022-08-20T03:47:20.914Z,987.76
2022-08-20T03:48:20.891Z,987.81
2022-08-20T03:49:20.882Z,987.77
2022-08-20T03:50:22.901Z,987.82
2022-08-20T03:51:20.892Z,987.76
2022-08-20T03:52:20.859Z,987.79
2022-08-20T03:53:20.824Z,987.80
2022-08-20T03:54:20.888Z,987.88
2022-08-20T03:55:20.805Z,987.80
2022-08-20T03:56:20.791Z,987.80
2022-08-20T03:57:21.817Z,987.72
2022-08-20T03:58:20.774Z,987.74
2022-08-20T03:59:20.770Z,987.77
2022-08-20T04:00:20.780Z,987.74
2022-08-20T04:01:44.281Z,987.79
2022-08-20T04:02:21.766Z,987.80
2022-08-20T04:03:20.760Z,987.82
2022-08-20T04:04:20.726Z,987.79
2022-08-20T04:05:20.704Z,987.76
2022-08-20T04:06:20.716Z,987.78
2022-08-20T04:07:20.736Z,987.83
2022-08-20T04:08:20.680Z,987.83
2022-08-20T04:09:20.684Z,987.83
2022-08-20T04:10:20.659Z,987.86
2022-08-20T04:11:21.648Z,987.87
2022-08-20T04:12:20.666Z,987.84
2022-08-20T04:13:20.632Z,987.92
2022-08-20T04:14:20.741Z,987.92
2022-08-20T04:15:20.609Z,987.93
2022-08-20T04:16:20.601Z,987.86
2022-08-20T04:17:20.588Z,987.90
2022-08-20T04:18:20.621Z,987.98
2022-08-20T04:19:20.573Z,987.96
2022-08-20T04:20:20.565Z,987.93
2022-08-20T04:21:20.555Z,987.92
2022-08-20T04:22:20.538Z,987.89
2022-08-20T04:23:20.543Z,987.95
2022-08-20T04:24:27.493Z,987.93
2022-08-20T04:25:21.517Z,987.89
2022-08-20T04:26:20.503Z,987.85
2022-08-20T04:27:20.515Z,987.87
2022-08-20T04:28:20.480Z,987.83
2022-08-20T04:29:20.463Z,987.77
2022-08-20T04:30:20.456Z,987.75
2022-08-20T04:31:24.878Z,987.80
2022-08-20T04:32:21.459Z,987.78
2022-08-20T04:33:22.667Z,987.79
2022-08-20T04:34:21.420Z,987.78
2022-08-20T04:35:20.411Z,987.80
2022-08-20T04:36:20.398Z,987.85
2022-08-20T04:37:20.418Z,987.80
2022-08-20T04:38:20.372Z,987.81
2022-08-20T04:39:20.370Z,987.87
2022-08-20T04:40:20.396Z,987.84
2022-08-20T04:41:22.944Z,987.78
2022-08-20T04:42:20.346Z,987.80
2022-08-20T04:43:20.338Z,987.88
2022-08-20T04:44:20.316Z,987.87
2022-08-20T04:45:20.329Z,987.86
2022-08-20T04:46:20.301Z,987.85
2022-08-20T04:47:20.290Z,987.82
2022-08-20T04:48:21.275Z,987.87
2022-08-20T04:49:20.297Z,987.90
2022-08-20T04:50:20.260Z,987.91
2022-08-20T04:51:23.256Z,987.93
2022-08-20T04:52:20.240Z,987.93
2022-08-20T04:53:25.260Z,987.99
2022-08-20T04:54:21.232Z,988.01
2022-08-20T04:55:20.207Z,987.94
2022-08-20T04:56:20.232Z,987.95
2022-08-20T04:57:20.185Z,987.98
2022-08-20T04:58:20.185Z,987.98
2022-08-20T04:59:20.172Z,987.99
2022-08-20T05:00:20.166Z,988.02
2022-08-20T05:01:20.218Z,987.99
2022-08-20T05:02:20.180Z,987.96
2022-08-20T05:03:20.129Z,987.94
2022-08-20T05:04:20.119Z,987.91
2022-08-20T05:05:20.109Z,987.92
2022-08-20T05:06:20.115Z,987.94
2022-08-20T05:07:20.092Z,987.98
2022-08-20T05:08:20.439Z,987.96
2022-08-20T05:09:20.069Z,987.93
2022-08-20T05:10:20.064Z,987.98
2022-08-20T05:11:33.773Z,987.97
2022-08-20T05:12:21.033Z,987.98
2022-08-20T05:13:22.175Z,988.03
2022-08-20T05:14:20.021Z,988.02
2022-08-20T05:15:20.019Z,988.08
2022-08-20T05:16:20.024Z,988.07
2022-08-20T05:17:19.989Z,988.02
2022-08-20T05:18:20.036Z,988.06
2022-08-20T05:19:19.969Z,988.07
2022-08-20T05:20:19.985Z,988.09
2022-08-20T05:21:19.943Z,988.04
2022-08-20T05:22:19.964Z,988.12
2022-08-20T05:23:19.938Z,988.10
2022-08-20T05:24:19.943Z,988.07
2022-08-20T05:25:19.912Z,988.09
2022-08-20T05:26:19.917Z,988.11
2022-08-20T05:27:24.726Z,988.07
2022-08-20T05:28:20.883Z,988.11
2022-08-20T05:29:19.898Z,988.08
2022-08-20T05:30:19.859Z,988.17
2022-08-20T05:31:19.839Z,988.18
2022-08-20T05:32:19.845Z,988.14
2022-08-20T05:33:19.817Z,988.14
2022-08-20T05:34:19.844Z,988.11
2022-08-20T05:35:19.820Z,988.13
2022-08-20T05:36:19.801Z,988.14
2022-08-20T05:37:19.808Z,988.17
2022-08-20T05:38:19.778Z,988.14
2022-08-20T05:39:19.766Z,988.17
2022-08-20T05:40:19.817Z,988.16
2022-08-20T05:41:29.228Z,988.16
2022-08-20T05:42:20.741Z,988.19
2022-08-20T05:43:19.734Z,988.19
2022-08-20T05:44:40.526Z,988.13
2022-08-20T05:45:19.741Z,988.19
2022-08-20T05:46:19.713Z,988.19
2022-08-20T05:47:19.692Z,988.20
2022-08-20T05:48:19.692Z,988.22
2022-08-20T05:49:19.697Z,988.30
2022-08-20T05:50:19.798Z,988.30
2022-08-20T05:51:19.648Z,988.36
2022-08-20T05:52:19.654Z,988.30
2022-08-20T05:53:19.637Z,988.31
2022-08-20T05:54:19.645Z,988.33
2022-08-20T05:55:19.610Z,988.32
2022-08-20T05:56:19.606Z,988.29
2022-08-20T05:57:20.592Z,988.31
2022-08-20T05:58:19.592Z,988.35
2022-08-20T05:59:23.927Z,988.39
2022-08-20T06:00:20.564Z,988.40
2022-08-20T06:01:19.601Z,988.38
2022-08-20T06:02:19.535Z,988.28
2022-08-20T06:03:19.533Z,988.25
2022-08-20T06:04:19.555Z,988.30
2022-08-20T06:05:19.508Z,988.29
2022-08-20T06:06:45.938Z,988.27
2022-08-20T06:07:20.502Z,988.30
2022-08-20T06:08:19.497Z,988.32
2022-08-20T06:09:28.632Z,988.35
2022-08-20T06:10:20.469Z,988.36
2022-08-20T06:11:19.456Z,988.35
2022-08-20T06:12:19.447Z,988.37
2022-08-20T06:13:19.437Z,988.34
2022-08-20T06:14:19.455Z,988.32
2022-08-20T06:15:19.414Z,988.34
2022-08-20T06:16:19.401Z,988.32
2022-08-20T06:17:22.174Z,988.33
2022-08-20T06:18:28.071Z,988.37
2022-08-20T06:19:24.201Z,988.34
2022-08-20T06:20:20.383Z,988.29
2022-08-20T06:21:19.376Z,988.30
2022-08-20T06:22:22.972Z,988.32
2022-08-20T06:23:20.335Z,988.33
2022-08-20T06:24:19.322Z,988.29
2022-08-20T06:25:19.371Z,988.37
2022-08-20T06:26:24.182Z,988.36
2022-08-20T06:27:20.298Z,988.38
2022-08-20T06:28:19.283Z,988.38
2022-08-20T06:29:19.280Z,988.40
2022-08-20T06:30:19.288Z,988.38
2022-08-20T06:31:19.269Z,988.38
2022-08-20T06:32:19.268Z,988.44
2022-08-20T06:33:19.235Z,988.38
2022-08-20T06:34:19.209Z,988.36
2022-08-20T06:35:20.297Z,988.36
2022-08-20T06:36:19.268Z,988.34
2022-08-20T06:37:19.218Z,988.30
2022-08-20T06:38:19.197Z,988.35
2022-08-20T06:39:19.181Z,988.35
2022-08-20T06:40:19.227Z,988.35
2022-08-20T06:41:19.165Z,988.33
2022-08-20T06:42:20.828Z,988.30
2022-08-20T06:43:19.157Z,988.31
2022-08-20T06:44:19.154Z,988.35
2022-08-20T06:45:19.123Z,988.37
2022-08-20T06:46:19.124Z,988.38
2022-08-20T06:47:19.097Z,988.32
2022-08-20T06:48:19.107Z,988.36
2022-08-20T06:49:19.078Z,988.31
2022-08-20T06:50:19.075Z,988.34
2022-08-20T06:51:19.064Z,988.35
2022-08-20T06:52:19.062Z,988.25
2022-08-20T06:53:19.069Z,988.32
2022-08-20T06:54:19.035Z,988.41
2022-08-20T06:55:19.020Z,988.35
2022-08-20T06:56:19.010Z,988.40
2022-08-20T06:57:18.994Z,988.40
2022-08-20T06:58:36.743Z,988.38
2022-08-20T06:59:18.982Z,988.31
2022-08-20T07:00:44.942Z,988.34
2022-08-20T07:01:19.010Z,988.38
2022-08-20T07:02:18.955Z,988.41
2022-08-20T07:03:18.930Z,988.40
2022-08-20T07:04:18.924Z,988.43
2022-08-20T07:05:18.927Z,988.43
2022-08-20T07:06:18.940Z,988.47
2022-08-20T07:07:18.930Z,988.51
2022-08-20T07:08:18.879Z,988.48
2022-08-20T07:09:18.876Z,988.46
2022-08-20T07:10:18.883Z,988.51
2022-08-20T07:11:19.668Z,988.50
2022-08-20T07:12:18.875Z,988.51
2022-08-20T07:13:18.875Z,988.58
2022-08-20T07:14:18.822Z,988.52
2022-08-20T07:15:18.815Z,988.58
2022-08-20T07:16:18.808Z,988.57
2022-08-20T07:17:18.806Z,988.58
2022-08-20T07:18:28.227Z,988.54
2022-08-20T07:19:18.771Z,988.66
2022-08-20T07:20:18.783Z,988.60
2022-08-20T07:21:18.768Z,988.70
2022-08-20T07:22:18.786Z,988.71
2022-08-20T07:23:18.738Z,988.70
2022-08-20T07:24:18.722Z,988.67
2022-08-20T07:25:18.863Z,988.70
2022-08-20T07:26:18.743Z,988.75
2022-08-20T07:27:18.692Z,988.76
2022-08-20T07:28:18.678Z,988.73
2022-08-20T07:29:21.653Z,988.78
2022-08-20T07:30:18.664Z,988.78
2022-08-20T07:31:20.428Z,988.87
2022-08-20T07:32:18.665Z,988.82
2022-08-20T07:33:18.637Z,988.88
2022-08-20T07:34:19.625Z,988.84
2022-08-20T07:35:18.666Z,988.84
2022-08-20T07:36:18.596Z,988.89
2022-08-20T07:37:18.612Z,988.89
2022-08-20T07:38:18.581Z,988.90
2022-08-20T07:39:18.588Z,988.92
2022-08-20T07:40:21.294Z,988.86
2022-08-20T07:41:18.559Z,988.95
2022-08-20T07:42:18.562Z,988.89
2022-08-20T07:43:18.549Z,988.92
2022-08-20T07:44:18.537Z,988.97
2022-08-20T07:45:18.526Z,989.00
2022-08-20T07:46:20.569Z,988.99
2022-08-20T07:47:18.527Z,988.98
2022-08-20T07:48:30.935Z,989.05
2022-08-20T07:49:19.480Z,989.02
2022-08-20T07:50:18.480Z,989.01
2022-08-20T07:51:18.451Z,989.00
2022-08-20T07:52:18.456Z,988.97
2022-08-20T07:53:18.459Z,989.05
2022-08-20T07:54:18.431Z,989.02
2022-08-20T07:55:18.395Z,989.00
2022-08-20T07:56:18.427Z,989.00
2022-08-20T07:57:18.397Z,989.00
2022-08-20T07:58:18.413Z,989.07
2022-08-20T07:59:18.379Z,989.00
2022-08-20T08:00:18.367Z,989.05
2022-08-20T08:01:18.414Z,989.12
2022-08-20T08:02:18.373Z,989.07
2022-08-20T08:03:18.332Z,989.10
2022-08-20T08:04:18.326Z,989.07
2022-08-20T08:05:18.315Z,989.09
2022-08-20T08:06:28.342Z,989.08
2022-08-20T08:07:19.341Z,989.08
2022-08-20T08:08:18.302Z,989.09
2022-08-20T08:09:18.287Z,989.08
2022-08-20T08:10:18.394Z,989.13
2022-08-20T08:11:18.242Z,989.00
2022-08-20T08:12:18.236Z,989.09
2022-08-20T08:13:18.249Z,989.08
2022-08-20T08:14:18.242Z,989.04
2022-08-20T08:15:18.214Z,989.08
2022-08-20T08:16:18.201Z,989.07
2022-08-20T08:17:18.188Z,989.08
2022-08-20T08:18:18.173Z,989.15
2022-08-20T08:19:18.213Z,989.07
2022-08-20T08:20:18.172Z,989.11
2022-08-20T08:21:18.158Z,989.09
2022-08-20T08:22:18.161Z,989.06
2022-08-20T08:23:25.457Z,989.06
2022-08-20T08:24:21.719Z,989.05
2022-08-20T08:25:19.105Z,989.06
2022-08-20T08:26:19.105Z,989.01
2022-08-20T08:27:18.115Z,989.05
2022-08-20T08:28:18.097Z,989.08
2022-08-20T08:29:18.066Z,989.08
2022-08-20T08:30:18.071Z,989.00
2022-08-20T08:31:18.053Z,989.05
2022-08-20T08:32:18.096Z,989.07
2022-08-20T08:33:18.045Z,989.04
2022-08-20T08:34:18.047Z,989.03
2022-08-20T08:35:18.044Z,989.01
2022-08-20T08:36:18.004Z,988.99
2022-08-20T08:37:18.016Z,988.98
2022-08-20T08:38:17.982Z,989.01
2022-08-20T08:39:17.988Z,989.01
2022-08-20T08:40:17.995Z,989.05
2022-08-20T08:41:17.984Z,989.09
2022-08-20T08:42:17.942Z,989.07
2022-08-20T08:43:21.222Z,989.08
2022-08-20T08:44:17.937Z,989.06
2022-08-20T08:45:17.912Z,989.08
2022-08-20T08:46:17.899Z,989.05
2022-08-20T08:47:17.889Z,989.08
2022-08-20T08:48:18.880Z,989.00
2022-08-20T08:49:17.887Z,989.04
2022-08-20T08:50:24.931Z,989.06
2022-08-20T08:51:17.851Z,988.95
2022-08-20T08:52:17.858Z,989.04
2022-08-20T08:53:17.882Z,988.99
2022-08-20T08:54:17.809Z,988.96
2022-08-20T08:55:17.819Z,988.97
2022-08-20T08:56:17.783Z,988.97
2022-08-20T08:57:17.812Z,989.01
2022-08-20T08:58:17.798Z,989.04
2022-08-20T08:59:17.784Z,989.04
2022-08-20T09:00:17.774Z,989.02
2022-08-20T09:01:55.847Z,989.02
2022-08-20T09:02:17.882Z,989.05
2022-08-20T09:03:17.731Z,989.01
2022-08-20T09:04:17.723Z,989.04
2022-08-20T09:05:17.719Z,989.07
2022-08-20T09:06:18.035Z,989.06
2022-08-20T09:07:17.686Z,989.06
2022-08-20T09:08:17.691Z,989.05
2022-08-20T09:09:17.661Z,989.05
2022-08-20T09:10:17.778Z,989.07
2022-08-20T09:11:18.634Z,989.05
2022-08-20T09:12:17.648Z,989.07
2022-08-20T09:13:17.656Z,989.09
2022-08-20T09:14:17.640Z,989.03
2022-08-20T09:15:17.614Z,989.12
2022-08-20T09:16:17.601Z,989.11
2022-08-20T09:17:17.598Z,989.12
2022-08-20T09:18:17.581Z,989.19
2022-08-20T09:19:17.569Z,989.24
2022-08-20T09:20:17.587Z,989.19
2022-08-20T09:21:17.545Z,989.20
2022-08-20T09:22:17.541Z,989.17
2022-08-20T09:23:17.531Z,989.13
2022-08-20T09:24:17.541Z,989.09
2022-08-20T09:25:17.541Z,989.13
2022-08-20T09:26:17.494Z,989.20
2022-08-20T09:27:17.480Z,989.13
2022-08-20T09:28:17.485Z,989.09
2022-08-20T09:29:17.464Z,989.14
2022-08-20T09:30:17.475Z,989.10
2022-08-20T09:31:18.283Z,989.13
2022-08-20T09:32:17.458Z,989.14
2022-08-20T09:33:17.431Z,989.06
2022-08-20T09:34:17.426Z,989.13
2022-08-20T09:35:17.423Z,989.13
2022-08-20T09:36:29.284Z,989.04
2022-08-20T09:37:18.398Z,989.05
2022-08-20T09:38:17.362Z,989.17
2022-08-20T09:39:17.385Z,989.08
2022-08-20T09:40:21.314Z,989.06
2022-08-20T09:41:17.343Z,989.05
2022-08-20T09:42:17.331Z,988.99
2022-08-20T09:43:17.317Z,988.96
2022-08-20T09:44:17.348Z,989.04
2022-08-20T09:45:17.297Z,988.99
2022-08-20T09:46:17.307Z,989.02
2022-08-20T09:47:17.289Z,989.00
2022-08-20T09:48:17.278Z,988.99
2022-08-20T09:49:17.297Z,989.00
2022-08-20T09:50:17.253Z,988.93
2022-08-20T09:51:17.257Z,988.92
2022-08-20T09:52:17.266Z,988.86
2022-08-20T09:53:17.231Z,988.85
2022-08-20T09:54:17.224Z,988.89
2022-08-20T09:55:17.225Z,988.88
2022-08-20T09:56:17.219Z,988.89
2022-08-20T09:57:17.207Z,988.90
2022-08-20T09:58:17.189Z,988.86
2022-08-20T09:59:17.201Z,988.90
2022-08-20T10:00:17.155Z,988.88
2022-08-20T10:01:17.204Z,988.82
2022-08-20T10:02:17.148Z,988.83
2022-08-20T10:03:17.150Z,988.90
2022-08-20T10:04:17.155Z,988.88
2022-08-20T10:05:17.114Z,988.82
2022-08-20T10:06:17.103Z,988.88
2022-08-20T10:07:17.100Z,988.89
2022-08-20T10:08:17.110Z,988.87
2022-08-20T10:09:17.065Z,988.86
2022-08-20T10:10:17.063Z,988.82
2022-08-20T10:11:17.911Z,988.77
2022-08-20T10:12:17.065Z,988.74
2022-08-20T10:13:17.044Z,988.78
2022-08-20T10:14:17.020Z,988.78
2022-08-20T10:15:17.032Z,988.83
2022-08-20T10:16:17.026Z,988.82
2022-08-20T10:17:16.991Z,988.75
2022-08-20T10:18:16.995Z,988.79
2022-08-20T10:19:17.000Z,988.72
2022-08-20T10:20:16.996Z,988.72
2022-08-20T10:21:16.997Z,988.71
2022-08-20T10:22:16.961Z,988.75
2022-08-20T10:23:16.934Z,988.73
2022-08-20T10:24:16.931Z,988.74
2022-08-20T10:25:16.920Z,988.77
2022-08-20T10:26:16.927Z,988.85
2022-08-20T10:27:16.917Z,988.86
2022-08-20T10:28:16.892Z,988.81
2022-08-20T10:29:16.909Z,988.78
2022-08-20T10:30:16.875Z,988.82
2022-08-20T10:31:16.853Z,988.85
2022-08-20T10:32:16.964Z,988.81
2022-08-20T10:33:16.840Z,988.79
2022-08-20T10:34:16.854Z,988.79
2022-08-20T10:35:16.821Z,988.81
2022-08-20T10:36:16.843Z,988.79
2022-08-20T10:37:16.812Z,988.77
2022-08-20T10:38:16.787Z,988.83
2022-08-20T10:39:16.776Z,988.76
2022-08-20T10:40:16.839Z,988.75
2022-08-20T10:41:16.789Z,988.78
2022-08-20T10:42:16.776Z,988.75
2022-08-20T10:43:16.745Z,988.76
2022-08-20T10:44:16.761Z,988.69
2022-08-20T10:45:16.724Z,988.72
2022-08-20T10:46:16.701Z,988.68
2022-08-20T10:47:16.709Z,988.70
2022-08-20T10:48:20.917Z,988.70
2022-08-20T10:49:16.700Z,988.74
2022-08-20T10:50:16.673Z,988.77
2022-08-20T10:51:16.672Z,988.76
2022-08-20T10:52:16.653Z,988.72
2022-08-20T10:53:16.640Z,988.79
2022-08-20T10:54:16.686Z,988.76
2022-08-20T10:55:16.665Z,988.79
2022-08-20T10:56:16.635Z,988.76
2022-08-20T10:57:16.606Z,988.77
2022-08-20T10:58:16.741Z,988.83
2022-08-20T10:59:16.761Z,988.77
2022-08-20T11:00:16.600Z,988.77
2022-08-20T11:01:32.539Z,988.84
2022-08-20T11:02:17.617Z,988.76
2022-08-20T11:03:16.555Z,988.83
2022-08-20T11:04:16.540Z,988.79
2022-08-20T11:05:16.534Z,988.79
2022-08-20T11:06:16.553Z,988.77
2022-08-20T11:07:16.506Z,988.70
2022-08-20T11:08:26.866Z,988.72
2022-08-20T11:09:17.494Z,988.71
2022-08-20T11:10:16.484Z,988.73
2022-08-20T11:11:16.479Z,988.74
2022-08-20T11:12:16.486Z,988.72
2022-08-20T11:13:16.455Z,988.77
2022-08-20T11:14:16.441Z,988.74
2022-08-20T11:15:16.422Z,988.75
2022-08-20T11:16:16.420Z,988.81
2022-08-20T11:17:16.424Z,988.74
2022-08-20T11:18:16.398Z,988.74
2022-08-20T11:19:16.385Z,988.75
2022-08-20T11:20:16.386Z,988.73
2022-08-20T11:21:16.357Z,988.68
2022-08-20T11:22:16.352Z,988.69
2022-08-20T11:23:16.373Z,988.73
2022-08-20T11:24:16.341Z,988.61
2022-08-20T11:25:16.328Z,988.65
2022-08-20T11:26:16.309Z,988.55
2022-08-20T11:27:16.308Z,988.61
2022-08-20T11:28:16.330Z,988.59
2022-08-20T11:29:17.284Z,988.54
2022-08-20T11:30:16.284Z,988.43
2022-08-20T11:31:16.262Z,988.49
2022-08-20T11:32:16.251Z,988.45
2022-08-20T11:33:16.242Z,988.44
2022-08-20T11:34:16.267Z,988.45
2022-08-20T11:35:41.765Z,988.51
2022-08-20T11:36:18.226Z,988.47
2022-08-20T11:37:16.203Z,988.39
2022-08-20T11:38:17.201Z,988.39
2022-08-20T11:39:16.225Z,988.45
2022-08-20T11:40:16.215Z,988.39
2022-08-20T11:41:16.181Z,988.38
2022-08-20T11:42:16.164Z,988.38
2022-08-20T11:43:17.277Z,988.39
2022-08-20T11:44:20.133Z,988.42
2022-08-20T11:45:17.129Z,988.45
2022-08-20T11:46:16.120Z,988.42
2022-08-20T11:47:16.113Z,988.39
2022-08-20T11:48:16.096Z,988.38
2022-08-20T11:49:16.101Z,988.39
2022-08-20T11:50:16.086Z,988.36
2022-08-20T11:51:16.068Z,988.31
2022-08-20T11:52:16.059Z,988.32
2022-08-20T11:53:16.076Z,988.31
2022-08-20T11:54:16.050Z,988.26
2022-08-20T11:55:16.046Z,988.27
2022-08-20T11:56:16.014Z,988.30
2022-08-20T11:57:16.030Z,988.31
2022-08-20T11:58:16.021Z,988.22
2022-08-20T11:59:15.995Z,988.24
2022-08-20T12:00:15.983Z,988.20
2022-08-20T12:01:15.975Z,988.21
2022-08-20T12:02:16.024Z,988.23
2022-08-20T12:03:16.011Z,988.27
2022-08-20T12:04:15.942Z,988.26
2022-08-20T12:05:15.933Z,988.28
2022-08-20T12:06:15.944Z,988.26
2022-08-20T12:07:15.927Z,988.32
2022-08-20T12:08:27.615Z,988.30
2022-08-20T12:09:15.908Z,988.38
2022-08-20T12:10:15.893Z,988.41
2022-08-20T12:11:15.898Z,988.36
2022-08-20T12:12:15.876Z,988.36
2022-08-20T12:13:15.874Z,988.32
2022-08-20T12:14:15.844Z,988.31
2022-08-20T12:15:15.830Z,988.32
2022-08-20T12:16:15.834Z,988.25
2022-08-20T12:17:15.829Z,988.29
2022-08-20T12:18:15.805Z,988.22
2022-08-20T12:19:15.823Z,988.25
2022-08-20T12:20:15.788Z,988.27
2022-08-20T12:21:15.769Z,988.29
2022-08-20T12:22:24.894Z,988.29
2022-08-20T12:23:16.760Z,988.30
2022-08-20T12:24:15.767Z,988.23
2022-08-20T12:25:15.747Z,988.29
2022-08-20T12:26:15.723Z,988.23
2022-08-20T12:27:15.722Z,988.29
2022-08-20T12:28:15.706Z,988.30
2022-08-20T12:29:15.722Z,988.40
2022-08-20T12:30:15.692Z,988.43